sensor_id;sensor_type;location;lat;lon;timestamp;temperature;humidity
33955;DHT22;20233;50.804;7.126;2023-05-10T00:01:30;15.00;99.90
33955;DHT22;20233;50.804;7.126;2023-05-10T00:03:56;15.00;99.90
33955;DHT22;20233;50.804;7.126;2023-05-10T00:06:21;15.00;99.90
33955;DHT22;20233;50.804;7.126;2023-05-10T00:08:47;14.90;99.90
33955;DHT22;20233;50.804;7.126;2023-05-10T00:11:12;14.90;99.90
33955;DHT22;20233;50.804;7.126;2023-05-10T00:13:38;14.90;99.90
33955;DHT22;20233;50.804;7.126;2023-05-10T00:16:04;15.00;99.90
33955;DHT22;20233;50.804;7.126;2023-05-10T00:18:29;15.00;99.90
33955;DHT22;20233;50.804;7.126;2023-05-10T00:20:55;15.00;99.90
33955;DHT22;20233;50.804;7.126;2023-05-10T00:23:20;14.90;99.90
33955;DHT22;20233;50.804;7.126;2023-05-10T00:25:46;14.90;99.90
33955;DHT22;20233;50.804;7.126;2023-05-10T00:28:11;15.00;99.90
33955;DHT22;20233;50.804;7.126;2023-05-10T00:30:37;15.00;99.90
33955;DHT22;20233;50.804;7.126;2023-05-10T00:33:02;15.00;99.90
33955;DHT22;20233;50.804;7.126;2023-05-10T00:35:28;15.00;99.90
33955;DHT22;20233;50.804;7.126;2023-05-10T00:37:53;15.00;99.90
33955;DHT22;20233;50.804;7.126;2023-05-10T00:40:19;15.00;99.90
33955;DHT22;20233;50.804;7.126;2023-05-10T00:42:45;15.00;99.90
33955;DHT22;20233;50.804;7.126;2023-05-10T00:45:10;15.00;99.90
33955;DHT22;20233;50.804;7.126;2023-05-10T00:47:37;15.00;99.90
33955;DHT22;20233;50.804;7.126;2023-05-10T00:50:03;15.00;99.90
33955;DHT22;20233;50.804;7.126;2023-05-10T00:52:30;14.90;99.90
33955;DHT22;20233;50.804;7.126;2023-05-10T00:54:56;14.90;99.90
33955;DHT22;20233;50.804;7.126;2023-05-10T00:57:22;15.00;99.90
33955;DHT22;20233;50.804;7.126;2023-05-10T00:59:48;15.00;99.90
33955;DHT22;20233;50.804;7.126;2023-05-10T01:02:13;15.10;99.90
33955;DHT22;20233;50.804;7.126;2023-05-10T01:04:39;15.00;99.90
33955;DHT22;20233;50.804;7.126;2023-05-10T01:07:05;15.00;99.90
33955;DHT22;20233;50.804;7.126;2023-05-10T01:09:31;15.00;99.90
33955;DHT22;20233;50.804;7.126;2023-05-10T01:11:58;14.90;99.90
33955;DHT22;20233;50.804;7.126;2023-05-10T01:14:24;14.90;99.90
33955;DHT22;20233;50.804;7.126;2023-05-10T01:16:52;15.00;99.90
33955;DHT22;20233;50.804;7.126;2023-05-10T01:22:00;15.00;99.90
33955;DHT22;20233;50.804;7.126;2023-05-10T01:33:15;15.00;99.90
33955;DHT22;20233;50.804;7.126;2023-05-10T01:38:17;15.00;99.90
33955;DHT22;20233;50.804;7.126;2023-05-10T01:43:33;15.00;99.90
33955;DHT22;20233;50.804;7.126;2023-05-10T01:46:07;14.90;99.90
33955;DHT22;20233;50.804;7.126;2023-05-10T01:48:57;14.90;99.90
33955;DHT22;20233;50.804;7.126;2023-05-10T01:51:25;14.90;99.90
33955;DHT22;20233;50.804;7.126;2023-05-10T01:53:59;14.90;99.90
33955;DHT22;20233;50.804;7.126;2023-05-10T01:56:26;14.90;99.90
33955;DHT22;20233;50.804;7.126;2023-05-10T01:58:54;14.90;99.90
33955;DHT22;20233;50.804;7.126;2023-05-10T02:01:21;14.90;99.90
33955;DHT22;20233;50.804;7.126;2023-05-10T02:03:48;14.90;99.90
33955;DHT22;20233;50.804;7.126;2023-05-10T02:06:18;14.90;99.90
33955;DHT22;20233;50.804;7.126;2023-05-10T02:08:45;14.90;99.90
33955;DHT22;20233;50.804;7.126;2023-05-10T02:11:13;14.90;99.90
33955;DHT22;20233;50.804;7.126;2023-05-10T02:13:39;14.90;99.90
33955;DHT22;20233;50.804;7.126;2023-05-10T02:16:05;14.90;99.90
33955;DHT22;20233;50.804;7.126;2023-05-10T02:18:33;14.90;99.90
33955;DHT22;20233;50.804;7.126;2023-05-10T02:21:00;14.90;99.90
33955;DHT22;20233;50.804;7.126;2023-05-10T02:23:26;14.90;99.90
33955;DHT22;20233;50.804;7.126;2023-05-10T02:25:53;15.00;99.90
33955;DHT22;20233;50.804;7.126;2023-05-10T02:28:21;14.90;99.90
33955;DHT22;20233;50.804;7.126;2023-05-10T02:30:48;14.90;99.90
33955;DHT22;20233;50.804;7.126;2023-05-10T02:33:14;14.90;99.90
33955;DHT22;20233;50.804;7.126;2023-05-10T02:35:40;14.90;99.90
33955;DHT22;20233;50.804;7.126;2023-05-10T02:38:06;14.90;99.90
33955;DHT22;20233;50.804;7.126;2023-05-10T02:40:33;14.90;99.90
33955;DHT22;20233;50.804;7.126;2023-05-10T02:43:01;14.90;99.90
33955;DHT22;20233;50.804;7.126;2023-05-10T02:45:30;14.90;99.90
33955;DHT22;20233;50.804;7.126;2023-05-10T02:47:56;14.80;99.90
33955;DHT22;20233;50.804;7.126;2023-05-10T02:50:26;14.80;99.90
33955;DHT22;20233;50.804;7.126;2023-05-10T02:53:02;14.80;99.90
33955;DHT22;20233;50.804;7.126;2023-05-10T02:55:34;14.80;99.90
33955;DHT22;20233;50.804;7.126;2023-05-10T02:58:01;14.80;99.90
33955;DHT22;20233;50.804;7.126;2023-05-10T03:00:28;14.80;99.90
33955;DHT22;20233;50.804;7.126;2023-05-10T03:02:54;14.80;99.90
33955;DHT22;20233;50.804;7.126;2023-05-10T03:05:20;14.80;99.90
33955;DHT22;20233;50.804;7.126;2023-05-10T03:07:46;14.80;99.90
33955;DHT22;20233;50.804;7.126;2023-05-10T03:10:12;14.90;99.90
33955;DHT22;20233;50.804;7.126;2023-05-10T03:13:05;14.80;99.90
33955;DHT22;20233;50.804;7.126;2023-05-10T03:18:33;14.90;99.90
33955;DHT22;20233;50.804;7.126;2023-05-10T03:21:05;14.90;99.90
33955;DHT22;20233;50.804;7.126;2023-05-10T03:23:44;14.90;99.90
33955;DHT22;20233;50.804;7.126;2023-05-10T03:26:23;14.90;99.90
33955;DHT22;20233;50.804;7.126;2023-05-10T03:28:51;14.90;99.90
33955;DHT22;20233;50.804;7.126;2023-05-10T03:31:18;15.00;99.90
33955;DHT22;20233;50.804;7.126;2023-05-10T03:33:50;15.00;99.90
33955;DHT22;20233;50.804;7.126;2023-05-10T03:36:16;15.00;99.90
33955;DHT22;20233;50.804;7.126;2023-05-10T03:38:42;15.00;99.90
33955;DHT22;20233;50.804;7.126;2023-05-10T03:41:08;14.90;99.90
33955;DHT22;20233;50.804;7.126;2023-05-10T03:43:33;14.90;99.90
33955;DHT22;20233;50.804;7.126;2023-05-10T03:46:02;14.90;99.90
33955;DHT22;20233;50.804;7.126;2023-05-10T03:48:28;14.90;99.90
33955;DHT22;20233;50.804;7.126;2023-05-10T03:50:53;14.90;99.90
33955;DHT22;20233;50.804;7.126;2023-05-10T03:53:19;14.90;99.90
33955;DHT22;20233;50.804;7.126;2023-05-10T03:55:44;15.00;99.90
33955;DHT22;20233;50.804;7.126;2023-05-10T03:58:13;14.90;99.90
33955;DHT22;20233;50.804;7.126;2023-05-10T04:00:38;14.90;99.90
33955;DHT22;20233;50.804;7.126;2023-05-10T04:03:09;14.80;99.90
33955;DHT22;20233;50.804;7.126;2023-05-10T04:05:35;14.80;99.90
33955;DHT22;20233;50.804;7.126;2023-05-10T04:08:01;14.80;99.90
33955;DHT22;20233;50.804;7.126;2023-05-10T04:10:26;14.80;99.90
33955;DHT22;20233;50.804;7.126;2023-05-10T04:12:52;14.80;99.90
33955;DHT22;20233;50.804;7.126;2023-05-10T04:15:17;14.80;99.90
33955;DHT22;20233;50.804;7.126;2023-05-10T04:17:43;14.80;99.90
33955;DHT22;20233;50.804;7.126;2023-05-10T04:20:09;14.80;99.90
33955;DHT22;20233;50.804;7.126;2023-05-10T04:22:34;14.80;99.90
33955;DHT22;20233;50.804;7.126;2023-05-10T04:25:01;14.90;99.90
33955;DHT22;20233;50.804;7.126;2023-05-10T04:27:27;14.80;99.90
33955;DHT22;20233;50.804;7.126;2023-05-10T04:29:52;14.80;99.90
33955;DHT22;20233;50.804;7.126;2023-05-10T04:32:18;14.90;99.90
33955;DHT22;20233;50.804;7.126;2023-05-10T04:34:44;14.90;99.90
33955;DHT22;20233;50.804;7.126;2023-05-10T04:37:09;14.90;99.90
33955;DHT22;20233;50.804;7.126;2023-05-10T04:39:35;14.90;99.90
33955;DHT22;20233;50.804;7.126;2023-05-10T04:42:02;14.80;99.90
33955;DHT22;20233;50.804;7.126;2023-05-10T04:44:28;14.80;99.90
33955;DHT22;20233;50.804;7.126;2023-05-10T04:46:54;14.90;99.90
33955;DHT22;20233;50.804;7.126;2023-05-10T04:49:20;14.80;99.90
33955;DHT22;20233;50.804;7.126;2023-05-10T04:51:46;14.80;99.90
33955;DHT22;20233;50.804;7.126;2023-05-10T04:54:11;14.80;99.90
33955;DHT22;20233;50.804;7.126;2023-05-10T04:56:37;14.80;99.90
33955;DHT22;20233;50.804;7.126;2023-05-10T04:59:04;14.80;99.90
33955;DHT22;20233;50.804;7.126;2023-05-10T05:01:29;14.80;99.90
33955;DHT22;20233;50.804;7.126;2023-05-10T05:03:55;14.90;99.90
33955;DHT22;20233;50.804;7.126;2023-05-10T05:06:20;14.90;99.90
33955;DHT22;20233;50.804;7.126;2023-05-10T05:08:46;15.00;99.90
33955;DHT22;20233;50.804;7.126;2023-05-10T05:11:12;15.00;99.90
33955;DHT22;20233;50.804;7.126;2023-05-10T05:13:37;15.00;99.90
33955;DHT22;20233;50.804;7.126;2023-05-10T05:16:05;15.00;99.90
33955;DHT22;20233;50.804;7.126;2023-05-10T05:18:31;15.10;99.90
33955;DHT22;20233;50.804;7.126;2023-05-10T05:20:57;15.10;99.90
33955;DHT22;20233;50.804;7.126;2023-05-10T05:23:22;15.10;99.90
33955;DHT22;20233;50.804;7.126;2023-05-10T05:25:51;15.10;99.90
33955;DHT22;20233;50.804;7.126;2023-05-10T05:28:17;15.10;99.90
33955;DHT22;20233;50.804;7.126;2023-05-10T05:30:43;15.20;99.90
33955;DHT22;20233;50.804;7.126;2023-05-10T05:33:08;15.30;99.90
33955;DHT22;20233;50.804;7.126;2023-05-10T05:35:34;15.30;99.90
33955;DHT22;20233;50.804;7.126;2023-05-10T05:37:59;15.30;99.90
33955;DHT22;20233;50.804;7.126;2023-05-10T05:40:25;15.30;99.90
33955;DHT22;20233;50.804;7.126;2023-05-10T05:42:51;15.20;99.90
33955;DHT22;20233;50.804;7.126;2023-05-10T05:45:16;15.20;99.90
33955;DHT22;20233;50.804;7.126;2023-05-10T05:47:42;15.30;99.90
33955;DHT22;20233;50.804;7.126;2023-05-10T05:50:09;15.30;99.90
33955;DHT22;20233;50.804;7.126;2023-05-10T05:52:35;15.20;99.90
33955;DHT22;20233;50.804;7.126;2023-05-10T05:55:01;15.20;99.90
33955;DHT22;20233;50.804;7.126;2023-05-10T05:57:27;15.20;99.90
33955;DHT22;20233;50.804;7.126;2023-05-10T05:59:53;15.30;99.90
33955;DHT22;20233;50.804;7.126;2023-05-10T06:02:18;15.40;99.90
33955;DHT22;20233;50.804;7.126;2023-05-10T06:04:44;15.40;99.90
33955;DHT22;20233;50.804;7.126;2023-05-10T06:07:11;15.40;99.90
33955;DHT22;20233;50.804;7.126;2023-05-10T06:09:36;15.40;99.90
33955;DHT22;20233;50.804;7.126;2023-05-10T06:12:02;15.40;99.90
33955;DHT22;20233;50.804;7.126;2023-05-10T06:14:27;15.40;99.90
33955;DHT22;20233;50.804;7.126;2023-05-10T06:16:53;15.40;99.90
33955;DHT22;20233;50.804;7.126;2023-05-10T06:19:18;15.50;99.90
33955;DHT22;20233;50.804;7.126;2023-05-10T06:21:44;15.50;99.90
33955;DHT22;20233;50.804;7.126;2023-05-10T06:24:11;15.50;99.90
33955;DHT22;20233;50.804;7.126;2023-05-10T06:26:37;15.50;99.90
33955;DHT22;20233;50.804;7.126;2023-05-10T06:29:03;15.60;99.90
33955;DHT22;20233;50.804;7.126;2023-05-10T06:31:29;15.70;99.90
33955;DHT22;20233;50.804;7.126;2023-05-10T06:33:54;15.70;99.90
33955;DHT22;20233;50.804;7.126;2023-05-10T06:36:20;15.70;99.90
33955;DHT22;20233;50.804;7.126;2023-05-10T06:38:46;15.80;99.90
33955;DHT22;20233;50.804;7.126;2023-05-10T06:41:13;15.80;99.90
33955;DHT22;20233;50.804;7.126;2023-05-10T06:43:38;15.80;99.90
33955;DHT22;20233;50.804;7.126;2023-05-10T06:46:06;15.80;99.90
33955;DHT22;20233;50.804;7.126;2023-05-10T06:48:32;15.80;99.90
33955;DHT22;20233;50.804;7.126;2023-05-10T06:50:58;15.80;99.90
33955;DHT22;20233;50.804;7.126;2023-05-10T06:53:23;15.70;99.90
33955;DHT22;20233;50.804;7.126;2023-05-10T06:55:49;15.80;99.90
33955;DHT22;20233;50.804;7.126;2023-05-10T06:58:15;15.80;99.90
33955;DHT22;20233;50.804;7.126;2023-05-10T07:00:40;15.80;99.90
33955;DHT22;20233;50.804;7.126;2023-05-10T07:03:12;15.70;99.90
33955;DHT22;20233;50.804;7.126;2023-05-10T07:05:37;15.60;99.90
33955;DHT22;20233;50.804;7.126;2023-05-10T07:08:03;15.60;99.90
33955;DHT22;20233;50.804;7.126;2023-05-10T07:10:29;15.60;99.90
33955;DHT22;20233;50.804;7.126;2023-05-10T07:12:55;15.60;99.90
33955;DHT22;20233;50.804;7.126;2023-05-10T07:15:20;15.60;99.90
33955;DHT22;20233;50.804;7.126;2023-05-10T07:17:46;15.60;99.90
33955;DHT22;20233;50.804;7.126;2023-05-10T07:20:12;15.70;99.90
33955;DHT22;20233;50.804;7.126;2023-05-10T07:22:37;15.60;99.90
33955;DHT22;20233;50.804;7.126;2023-05-10T07:25:03;15.60;99.90
33955;DHT22;20233;50.804;7.126;2023-05-10T07:27:29;15.60;99.90
33955;DHT22;20233;50.804;7.126;2023-05-10T07:29:54;15.60;99.90
33955;DHT22;20233;50.804;7.126;2023-05-10T07:32:21;15.70;99.90
33955;DHT22;20233;50.804;7.126;2023-05-10T07:34:47;15.70;99.90
33955;DHT22;20233;50.804;7.126;2023-05-10T07:37:13;15.80;99.90
33955;DHT22;20233;50.804;7.126;2023-05-10T07:39:38;15.70;99.90
33955;DHT22;20233;50.804;7.126;2023-05-10T07:42:04;15.70;99.90
33955;DHT22;20233;50.804;7.126;2023-05-10T07:44:32;15.70;99.90
33955;DHT22;20233;50.804;7.126;2023-05-10T07:47:01;15.70;99.90
33955;DHT22;20233;50.804;7.126;2023-05-10T07:49:31;15.70;99.90
33955;DHT22;20233;50.804;7.126;2023-05-10T07:51:57;15.70;99.90
33955;DHT22;20233;50.804;7.126;2023-05-10T07:54:22;15.70;99.90
33955;DHT22;20233;50.804;7.126;2023-05-10T07:56:48;15.70;99.90
33955;DHT22;20233;50.804;7.126;2023-05-10T07:59:17;15.70;99.90
33955;DHT22;20233;50.804;7.126;2023-05-10T08:01:43;15.70;99.90
33955;DHT22;20233;50.804;7.126;2023-05-10T08:04:09;15.70;99.90
33955;DHT22;20233;50.804;7.126;2023-05-10T08:06:34;15.70;99.90
33955;DHT22;20233;50.804;7.126;2023-05-10T08:09:00;15.70;99.90
33955;DHT22;20233;50.804;7.126;2023-05-10T08:11:26;15.80;99.90
33955;DHT22;20233;50.804;7.126;2023-05-10T08:13:53;15.70;99.90
33955;DHT22;20233;50.804;7.126;2023-05-10T08:16:19;15.70;99.90
33955;DHT22;20233;50.804;7.126;2023-05-10T08:18:46;15.60;99.90
33955;DHT22;20233;50.804;7.126;2023-05-10T08:21:13;15.90;99.90
33955;DHT22;20233;50.804;7.126;2023-05-10T08:23:39;16.10;99.90
33955;DHT22;20233;50.804;7.126;2023-05-10T08:26:04;16.20;99.90
33955;DHT22;20233;50.804;7.126;2023-05-10T08:28:30;16.30;99.90
33955;DHT22;20233;50.804;7.126;2023-05-10T08:30:56;16.50;99.90
33955;DHT22;20233;50.804;7.126;2023-05-10T08:33:23;16.70;99.90
33955;DHT22;20233;50.804;7.126;2023-05-10T08:35:49;16.70;99.90
33955;DHT22;20233;50.804;7.126;2023-05-10T08:38:14;16.80;99.90
33955;DHT22;20233;50.804;7.126;2023-05-10T08:40:44;16.90;99.90
33955;DHT22;20233;50.804;7.126;2023-05-10T08:43:11;17.00;99.90
33955;DHT22;20233;50.804;7.126;2023-05-10T08:45:39;17.00;99.90
33955;DHT22;20233;50.804;7.126;2023-05-10T08:48:09;17.20;99.90
33955;DHT22;20233;50.804;7.126;2023-05-10T08:50:36;17.20;99.90
33955;DHT22;20233;50.804;7.126;2023-05-10T08:53:12;17.40;99.90
33955;DHT22;20233;50.804;7.126;2023-05-10T08:55:38;17.50;99.90
33955;DHT22;20233;50.804;7.126;2023-05-10T08:58:06;17.70;99.90
33955;DHT22;20233;50.804;7.126;2023-05-10T09:00:32;17.70;99.90
33955;DHT22;20233;50.804;7.126;2023-05-10T09:02:58;17.70;99.90
33955;DHT22;20233;50.804;7.126;2023-05-10T09:05:26;17.70;99.90
33955;DHT22;20233;50.804;7.126;2023-05-10T09:07:52;17.50;99.90
33955;DHT22;20233;50.804;7.126;2023-05-10T09:10:19;17.40;99.90
33955;DHT22;20233;50.804;7.126;2023-05-10T09:12:45;17.40;99.90
33955;DHT22;20233;50.804;7.126;2023-05-10T09:15:12;17.30;99.90
33955;DHT22;20233;50.804;7.126;2023-05-10T09:17:40;17.20;99.90
33955;DHT22;20233;50.804;7.126;2023-05-10T09:20:06;17.10;99.90
33955;DHT22;20233;50.804;7.126;2023-05-10T09:22:32;16.80;99.90
33955;DHT22;20233;50.804;7.126;2023-05-10T09:25:16;17.00;99.90
33955;DHT22;20233;50.804;7.126;2023-05-10T09:27:45;17.10;99.90
33955;DHT22;20233;50.804;7.126;2023-05-10T09:30:16;16.90;99.90
33955;DHT22;20233;50.804;7.126;2023-05-10T09:32:46;17.00;99.90
33955;DHT22;20233;50.804;7.126;2023-05-10T09:35:14;17.20;99.90
33955;DHT22;20233;50.804;7.126;2023-05-10T09:37:41;17.10;99.90
33955;DHT22;20233;50.804;7.126;2023-05-10T09:40:11;17.10;99.90
33955;DHT22;20233;50.804;7.126;2023-05-10T09:42:37;17.10;99.90
33955;DHT22;20233;50.804;7.126;2023-05-10T09:45:03;17.10;99.90
33955;DHT22;20233;50.804;7.126;2023-05-10T09:47:34;17.00;99.90
33955;DHT22;20233;50.804;7.126;2023-05-10T09:50:00;16.60;99.90
33955;DHT22;20233;50.804;7.126;2023-05-10T09:52:31;16.90;99.90
33955;DHT22;20233;50.804;7.126;2023-05-10T09:55:10;16.90;99.90
33955;DHT22;20233;50.804;7.126;2023-05-10T09:57:36;16.90;99.90
33955;DHT22;20233;50.804;7.126;2023-05-10T10:00:01;16.90;99.90
33955;DHT22;20233;50.804;7.126;2023-05-10T10:02:31;17.00;99.90
33955;DHT22;20233;50.804;7.126;2023-05-10T10:04:57;16.90;99.90
33955;DHT22;20233;50.804;7.126;2023-05-10T10:07:24;16.60;99.90
33955;DHT22;20233;50.804;7.126;2023-05-10T10:09:53;16.80;99.90
33955;DHT22;20233;50.804;7.126;2023-05-10T10:12:19;17.00;99.90
33955;DHT22;20233;50.804;7.126;2023-05-10T10:14:46;17.10;99.90
33955;DHT22;20233;50.804;7.126;2023-05-10T10:17:13;17.10;99.90
33955;DHT22;20233;50.804;7.126;2023-05-10T10:19:38;17.10;99.90
33955;DHT22;20233;50.804;7.126;2023-05-10T10:22:05;17.00;99.90
33955;DHT22;20233;50.804;7.126;2023-05-10T10:24:33;16.90;99.90
33955;DHT22;20233;50.804;7.126;2023-05-10T10:27:15;16.90;99.90
33955;DHT22;20233;50.804;7.126;2023-05-10T10:30:00;17.20;99.90
33955;DHT22;20233;50.804;7.126;2023-05-10T10:35:14;17.40;99.90
33955;DHT22;20233;50.804;7.126;2023-05-10T10:37:47;17.40;99.90
33955;DHT22;20233;50.804;7.126;2023-05-10T10:40:28;17.60;99.90
33955;DHT22;20233;50.804;7.126;2023-05-10T10:42:55;17.00;99.90
33955;DHT22;20233;50.804;7.126;2023-05-10T10:45:22;16.80;99.90
33955;DHT22;20233;50.804;7.126;2023-05-10T10:47:48;16.70;99.90
33955;DHT22;20233;50.804;7.126;2023-05-10T10:50:15;16.70;99.90
33955;DHT22;20233;50.804;7.126;2023-05-10T10:52:43;16.90;99.90
33955;DHT22;20233;50.804;7.126;2023-05-10T10:55:27;17.20;99.90
33955;DHT22;20233;50.804;7.126;2023-05-10T10:57:58;17.50;99.90
33955;DHT22;20233;50.804;7.126;2023-05-10T11:00:36;17.50;99.90
33955;DHT22;20233;50.804;7.126;2023-05-10T11:03:05;17.50;99.90
33955;DHT22;20233;50.804;7.126;2023-05-10T11:05:49;17.40;99.90
33955;DHT22;20233;50.804;7.126;2023-05-10T11:08:42;17.40;99.90
33955;DHT22;20233;50.804;7.126;2023-05-10T11:11:14;17.90;99.90
33955;DHT22;20233;50.804;7.126;2023-05-10T11:13:45;17.20;99.90
33955;DHT22;20233;50.804;7.126;2023-05-10T11:16:16;17.00;99.90
33955;DHT22;20233;50.804;7.126;2023-05-10T11:19:04;17.20;99.90
33955;DHT22;20233;50.804;7.126;2023-05-10T11:21:31;17.10;99.90
33955;DHT22;20233;50.804;7.126;2023-05-10T11:23:58;17.20;99.90
33955;DHT22;20233;50.804;7.126;2023-05-10T11:26:29;17.30;99.90
33955;DHT22;20233;50.804;7.126;2023-05-10T11:28:55;17.60;99.90
33955;DHT22;20233;50.804;7.126;2023-05-10T11:31:22;18.10;99.90
33955;DHT22;20233;50.804;7.126;2023-05-10T11:33:52;18.30;99.90
33955;DHT22;20233;50.804;7.126;2023-05-10T11:38:51;18.50;99.90
33955;DHT22;20233;50.804;7.126;2023-05-10T11:41:18;17.90;99.90
33955;DHT22;20233;50.804;7.126;2023-05-10T11:43:48;17.70;99.90
33955;DHT22;20233;50.804;7.126;2023-05-10T11:46:14;18.30;99.90
33955;DHT22;20233;50.804;7.126;2023-05-10T11:48:41;18.90;99.90
33955;DHT22;20233;50.804;7.126;2023-05-10T11:51:07;19.20;99.90
33955;DHT22;20233;50.804;7.126;2023-05-10T11:53:33;18.40;99.90
33955;DHT22;20233;50.804;7.126;2023-05-10T11:56:09;18.50;99.90
33955;DHT22;20233;50.804;7.126;2023-05-10T11:58:40;18.50;99.90
33955;DHT22;20233;50.804;7.126;2023-05-10T12:01:07;18.80;99.90
33955;DHT22;20233;50.804;7.126;2023-05-10T12:03:34;18.60;99.90
33955;DHT22;20233;50.804;7.126;2023-05-10T12:06:01;18.80;99.90
33955;DHT22;20233;50.804;7.126;2023-05-10T12:08:28;18.60;99.90
33955;DHT22;20233;50.804;7.126;2023-05-10T12:11:07;18.00;99.90
33955;DHT22;20233;50.804;7.126;2023-05-10T12:13:38;18.20;99.90
33955;DHT22;20233;50.804;7.126;2023-05-10T12:16:18;17.90;99.90
33955;DHT22;20233;50.804;7.126;2023-05-10T12:18:44;18.10;99.90
33955;DHT22;20233;50.804;7.126;2023-05-10T12:21:11;18.40;99.90
33955;DHT22;20233;50.804;7.126;2023-05-10T12:23:40;18.50;99.90
33955;DHT22;20233;50.804;7.126;2023-05-10T12:26:05;18.50;99.90
33955;DHT22;20233;50.804;7.126;2023-05-10T12:28:32;18.40;99.90
33955;DHT22;20233;50.804;7.126;2023-05-10T12:30:58;18.90;99.90
33955;DHT22;20233;50.804;7.126;2023-05-10T12:33:24;17.80;99.90
33955;DHT22;20233;50.804;7.126;2023-05-10T12:35:51;18.30;99.90
33955;DHT22;20233;50.804;7.126;2023-05-10T12:38:33;18.70;99.90
33955;DHT22;20233;50.804;7.126;2023-05-10T12:41:07;18.10;99.90
33955;DHT22;20233;50.804;7.126;2023-05-10T12:43:34;17.80;99.90
33955;DHT22;20233;50.804;7.126;2023-05-10T12:48:35;17.90;99.90
33955;DHT22;20233;50.804;7.126;2023-05-10T12:51:01;18.40;99.90
33955;DHT22;20233;50.804;7.126;2023-05-10T12:53:27;18.30;99.90
33955;DHT22;20233;50.804;7.126;2023-05-10T12:55:52;18.50;99.90
33955;DHT22;20233;50.804;7.126;2023-05-10T12:58:19;18.30;99.90
33955;DHT22;20233;50.804;7.126;2023-05-10T13:00:46;18.10;99.90
33955;DHT22;20233;50.804;7.126;2023-05-10T13:03:12;18.10;99.90
33955;DHT22;20233;50.804;7.126;2023-05-10T13:05:38;18.50;99.90
33955;DHT22;20233;50.804;7.126;2023-05-10T13:08:04;18.70;99.90
33955;DHT22;20233;50.804;7.126;2023-05-10T13:10:30;19.10;99.90
33955;DHT22;20233;50.804;7.126;2023-05-10T13:12:57;19.30;99.90
33955;DHT22;20233;50.804;7.126;2023-05-10T13:15:23;18.70;99.90
33955;DHT22;20233;50.804;7.126;2023-05-10T13:17:48;18.70;99.90
33955;DHT22;20233;50.804;7.126;2023-05-10T13:20:14;17.80;99.90
33955;DHT22;20233;50.804;7.126;2023-05-10T13:22:40;17.80;99.90
33955;DHT22;20233;50.804;7.126;2023-05-10T13:25:06;18.10;99.90
33955;DHT22;20233;50.804;7.126;2023-05-10T13:27:32;18.60;99.90
33955;DHT22;20233;50.804;7.126;2023-05-10T13:29:57;18.70;99.90
33955;DHT22;20233;50.804;7.126;2023-05-10T13:32:24;18.70;99.90
33955;DHT22;20233;50.804;7.126;2023-05-10T13:34:50;18.10;99.90
33955;DHT22;20233;50.804;7.126;2023-05-10T13:37:16;17.60;99.90
33955;DHT22;20233;50.804;7.126;2023-05-10T13:39:42;17.50;99.90
33955;DHT22;20233;50.804;7.126;2023-05-10T13:42:07;17.40;99.90
33955;DHT22;20233;50.804;7.126;2023-05-10T13:44:33;17.20;99.90
33955;DHT22;20233;50.804;7.126;2023-05-10T13:46:59;17.30;99.90
33955;DHT22;20233;50.804;7.126;2023-05-10T13:49:24;17.30;99.90
33955;DHT22;20233;50.804;7.126;2023-05-10T13:51:50;17.20;99.90
33955;DHT22;20233;50.804;7.126;2023-05-10T13:54:16;17.30;99.90
33955;DHT22;20233;50.804;7.126;2023-05-10T13:56:45;17.70;99.90
33955;DHT22;20233;50.804;7.126;2023-05-10T13:59:12;18.00;99.90
33955;DHT22;20233;50.804;7.126;2023-05-10T14:01:38;17.90;99.90
33955;DHT22;20233;50.804;7.126;2023-05-10T14:04:03;18.00;99.90
33955;DHT22;20233;50.804;7.126;2023-05-10T14:06:29;17.30;99.90
33955;DHT22;20233;50.804;7.126;2023-05-10T14:08:54;17.50;99.90
33955;DHT22;20233;50.804;7.126;2023-05-10T14:11:20;17.60;99.90
33955;DHT22;20233;50.804;7.126;2023-05-10T14:13:46;17.60;99.90
33955;DHT22;20233;50.804;7.126;2023-05-10T14:16:11;17.90;99.90
33955;DHT22;20233;50.804;7.126;2023-05-10T14:18:37;17.50;99.90
33955;DHT22;20233;50.804;7.126;2023-05-10T14:21:03;17.20;99.90
33955;DHT22;20233;50.804;7.126;2023-05-10T14:23:29;17.60;99.90
33955;DHT22;20233;50.804;7.126;2023-05-10T14:25:55;17.70;99.90
33955;DHT22;20233;50.804;7.126;2023-05-10T14:28:21;18.00;99.90
33955;DHT22;20233;50.804;7.126;2023-05-10T14:30:47;18.00;99.90
33955;DHT22;20233;50.804;7.126;2023-05-10T14:33:13;18.10;99.90
33955;DHT22;20233;50.804;7.126;2023-05-10T14:35:39;18.30;99.90
33955;DHT22;20233;50.804;7.126;2023-05-10T14:38:04;18.40;99.90
33955;DHT22;20233;50.804;7.126;2023-05-10T14:40:30;18.40;99.90
33955;DHT22;20233;50.804;7.126;2023-05-10T14:42:56;18.40;99.90
33955;DHT22;20233;50.804;7.126;2023-05-10T14:45:22;18.50;99.90
33955;DHT22;20233;50.804;7.126;2023-05-10T14:47:48;18.40;99.90
33955;DHT22;20233;50.804;7.126;2023-05-10T14:50:14;18.40;99.90
33955;DHT22;20233;50.804;7.126;2023-05-10T14:52:41;18.40;99.90
33955;DHT22;20233;50.804;7.126;2023-05-10T14:55:07;18.40;99.90
33955;DHT22;20233;50.804;7.126;2023-05-10T14:57:33;18.40;99.90
33955;DHT22;20233;50.804;7.126;2023-05-10T14:59:58;18.30;99.90
33955;DHT22;20233;50.804;7.126;2023-05-10T15:02:24;18.30;99.90
33955;DHT22;20233;50.804;7.126;2023-05-10T15:04:50;18.30;99.90
33955;DHT22;20233;50.804;7.126;2023-05-10T15:07:16;18.30;99.90
33955;DHT22;20233;50.804;7.126;2023-05-10T15:09:44;18.30;99.90
33955;DHT22;20233;50.804;7.126;2023-05-10T15:12:09;18.20;99.90
33955;DHT22;20233;50.804;7.126;2023-05-10T15:14:35;18.20;99.90
33955;DHT22;20233;50.804;7.126;2023-05-10T15:17:01;18.30;99.90
33955;DHT22;20233;50.804;7.126;2023-05-10T15:19:27;18.30;99.90
33955;DHT22;20233;50.804;7.126;2023-05-10T15:21:54;18.50;99.90
33955;DHT22;20233;50.804;7.126;2023-05-10T15:24:21;18.50;99.90
33955;DHT22;20233;50.804;7.126;2023-05-10T15:26:47;18.40;99.90
33955;DHT22;20233;50.804;7.126;2023-05-10T15:29:12;18.40;99.90
33955;DHT22;20233;50.804;7.126;2023-05-10T15:31:48;18.40;99.90
33955;DHT22;20233;50.804;7.126;2023-05-10T15:34:14;18.50;99.90
33955;DHT22;20233;50.804;7.126;2023-05-10T15:36:40;18.40;99.90
33955;DHT22;20233;50.804;7.126;2023-05-10T15:39:05;18.30;99.90
33955;DHT22;20233;50.804;7.126;2023-05-10T15:41:31;18.20;99.90
33955;DHT22;20233;50.804;7.126;2023-05-10T15:43:59;18.00;99.90
33955;DHT22;20233;50.804;7.126;2023-05-10T15:46:28;17.90;99.90
33955;DHT22;20233;50.804;7.126;2023-05-10T15:48:54;17.80;99.90
33955;DHT22;20233;50.804;7.126;2023-05-10T15:51:19;17.70;99.90
33955;DHT22;20233;50.804;7.126;2023-05-10T15:53:45;17.70;99.90
33955;DHT22;20233;50.804;7.126;2023-05-10T15:56:11;17.70;99.90
33955;DHT22;20233;50.804;7.126;2023-05-10T15:58:38;17.70;99.90